createdAt,value
2019-02-05T00:00:48.684Z,102091.22
2019-02-05T00:03:21.253Z,102083.33
2019-02-05T00:05:50.629Z,102096.38
2019-02-05T00:08:19.735Z,102091.17
2019-02-05T00:10:48.693Z,102089.39
2019-02-05T00:13:17.711Z,102091.98
2019-02-05T00:15:46.872Z,102099.38
2019-02-05T00:18:15.754Z,102091.98
2019-02-05T00:20:44.631Z,102078.50
2019-02-05T00:23:13.491Z,102082.86
2019-02-05T00:25:42.414Z,102102.91
2019-02-05T00:28:11.612Z,102105.55
2019-02-05T00:30:40.462Z,102092.88
2019-02-05T00:33:09.355Z,102099.35
2019-02-05T00:35:38.530Z,102098.44
2019-02-05T00:38:07.458Z,102100.30
2019-02-05T00:40:36.391Z,102096.68
2019-02-05T00:43:05.610Z,102105.05
2019-02-05T00:45:34.567Z,102094.06
2019-02-05T00:48:03.785Z,102092.81
2019-02-05T00:50:32.754Z,102095.02
2019-02-05T00:53:01.543Z,102108.02
2019-02-05T00:55:30.967Z,102101.91
2019-02-05T00:58:00.088Z,102107.14
2019-02-05T01:00:30.593Z,102107.14
2019-02-05T01:02:59.633Z,102109.91
2019-02-05T01:05:28.682Z,102117.20
2019-02-05T01:07:58.019Z,102113.34
2019-02-05T01:10:27.336Z,102115.06
2019-02-05T01:12:57.016Z,102109.39
2019-02-05T01:15:26.160Z,102116.41
2019-02-05T01:17:55.162Z,102105.64
2019-02-05T01:20:24.291Z,102107.20
2019-02-05T01:22:53.483Z,102100.50
2019-02-05T01:25:22.673Z,102110.90
2019-02-05T01:27:51.908Z,102109.23
2019-02-05T01:30:23.051Z,102121.84
2019-02-05T01:32:55.294Z,102113.56
2019-02-05T01:35:36.685Z,102118.32
2019-02-05T01:38:06.197Z,102110.48
2019-02-05T01:40:35.082Z,102113.46
2019-02-05T01:43:04.328Z,102106.56
2019-02-05T01:45:33.438Z,102108.73
2019-02-05T01:48:02.366Z,102108.34
2019-02-05T01:50:31.156Z,102102.17
2019-02-05T01:53:00.355Z,102101.75
2019-02-05T01:55:29.411Z,102110.06
2019-02-05T01:58:02.040Z,102108.23
2019-02-05T02:00:34.130Z,102101.70
2019-02-05T02:03:03.140Z,102099.09
2019-02-05T02:05:32.225Z,102091.64
2019-02-05T02:08:01.290Z,102095.98
2019-02-05T02:10:30.792Z,102094.31
2019-02-05T02:12:59.725Z,102096.00
2019-02-05T02:15:28.715Z,102092.95
2019-02-05T02:17:57.632Z,102084.61
2019-02-05T02:20:31.266Z,102094.18
2019-02-05T02:23:00.291Z,102094.20
2019-02-05T02:25:29.766Z,102105.52
2019-02-05T02:27:58.743Z,102102.04
2019-02-05T02:30:33.353Z,102106.83
2019-02-05T02:33:02.170Z,102106.33
2019-02-05T02:35:31.037Z,102109.05
2019-02-05T02:38:00.214Z,102109.46
2019-02-05T02:40:29.171Z,102120.34
2019-02-05T02:42:58.057Z,102110.69
2019-02-05T02:45:27.224Z,102115.92
2019-02-05T02:47:55.979Z,102119.00
2019-02-05T02:50:25.184Z,102118.56
2019-02-05T02:52:54.149Z,102131.60
2019-02-05T02:55:23.085Z,102129.88
2019-02-05T02:57:52.188Z,102132.42
2019-02-05T03:00:21.583Z,102124.59
2019-02-05T03:02:51.310Z,102130.47
2019-02-05T03:05:22.325Z,102128.59
2019-02-05T03:07:51.393Z,102128.16
2019-02-05T03:10:22.796Z,102143.83
2019-02-05T03:12:51.827Z,102142.20
2019-02-05T03:15:20.786Z,102135.23
2019-02-05T03:17:49.834Z,102136.97
2019-02-05T03:20:18.889Z,102133.50
2019-02-05T03:22:48.136Z,102126.16
2019-02-05T03:25:19.312Z,102131.97
2019-02-05T03:27:48.332Z,102135.23
2019-02-05T03:30:18.927Z,102135.67
2019-02-05T03:32:47.970Z,102136.54
2019-02-05T03:35:18.779Z,102133.95
2019-02-05T03:37:47.765Z,102131.33
2019-02-05T03:41:04.267Z,102131.80
2019-02-05T03:43:34.310Z,102134.73
2019-02-05T03:46:06.303Z,102132.54
2019-02-05T03:48:36.825Z,102141.77
2019-02-05T03:51:50.850Z,102132.98
2019-02-05T03:54:55.363Z,102129.48
2019-02-05T03:58:05.248Z,102129.88
2019-02-05T04:01:21.237Z,102143.86
2019-02-05T04:04:38.919Z,102149.09
2019-02-05T04:07:30.098Z,102139.00
2019-02-05T04:10:26.062Z,102146.34
2019-02-05T04:13:33.411Z,102141.59
2019-02-05T04:16:34.841Z,102148.95
2019-02-05T04:19:43.747Z,102146.34
2019-02-05T04:22:37.535Z,102155.94
2019-02-05T04:25:34.762Z,102151.20
2019-02-05T04:28:26.640Z,102147.83
2019-02-05T04:31:40.414Z,102153.00
2019-02-05T04:34:36.126Z,102152.61
2019-02-05T04:37:41.846Z,102151.59
2019-02-05T04:41:05.741Z,102144.74
2019-02-05T04:44:39.791Z,102151.57
2019-02-05T04:47:34.531Z,102145.51
2019-02-05T04:50:23.659Z,102152.93
2019-02-05T04:53:34.436Z,102155.96
2019-02-05T04:56:28.156Z,102162.00
2019-02-05T04:59:41.161Z,102158.63
2019-02-05T05:02:43.918Z,102157.30
2019-02-05T05:06:04.814Z,102158.55
2019-02-05T05:09:09.055Z,102160.17
2019-02-05T05:11:40.889Z,102169.02
2019-02-05T05:14:08.701Z,102163.31
2019-02-05T05:16:37.749Z,102158.97
2019-02-05T05:19:06.867Z,102155.96
2019-02-05T05:21:36.229Z,102162.47
2019-02-05T05:24:05.766Z,102164.59
2019-02-05T05:26:34.826Z,102165.53
2019-02-05T05:29:03.860Z,102166.81
2019-02-05T05:31:32.875Z,102171.59
2019-02-05T05:34:01.785Z,102177.69
2019-02-05T05:36:30.897Z,102175.02
2019-02-05T05:38:59.770Z,102178.50
2019-02-05T05:41:28.656Z,102174.19
2019-02-05T05:43:57.502Z,102177.28
2019-02-05T05:46:26.607Z,102174.16
2019-02-05T05:48:55.374Z,102176.83
2019-02-05T05:51:24.449Z,102177.61
2019-02-05T05:53:53.386Z,102186.31
2019-02-05T05:56:22.643Z,102177.69
2019-02-05T05:58:51.488Z,102179.37
2019-02-05T06:01:20.303Z,102176.73
2019-02-05T06:03:49.299Z,102182.05
2019-02-05T06:06:18.328Z,102183.68
2019-02-05T06:08:48.180Z,102194.53
2019-02-05T06:11:17.582Z,102194.16
2019-02-05T06:13:46.725Z,102181.58
2019-02-05T06:16:15.482Z,102194.95
2019-02-05T06:18:44.299Z,102196.33
2019-02-05T06:21:13.819Z,102198.97
2019-02-05T06:23:42.605Z,102211.92
2019-02-05T06:26:11.535Z,102216.36
2019-02-05T06:28:40.796Z,102212.09
2019-02-05T06:31:09.619Z,102211.49
2019-02-05T06:33:38.735Z,102221.53
2019-02-05T06:36:07.536Z,102214.98
2019-02-05T06:38:36.760Z,102222.35
2019-02-05T06:41:05.845Z,102221.91
2019-02-05T06:43:34.775Z,102217.13
2019-02-05T06:46:03.639Z,102231.52
2019-02-05T06:48:32.645Z,102235.44
2019-02-05T06:51:01.507Z,102233.72
2019-02-05T06:53:30.549Z,102238.06
2019-02-05T06:55:59.821Z,102240.30
2019-02-05T06:58:28.940Z,102241.98
2019-02-05T07:00:58.331Z,102245.44
2019-02-05T07:03:27.317Z,102242.83
2019-02-05T07:05:56.295Z,102244.28
2019-02-05T07:08:25.352Z,102251.60
2019-02-05T07:10:54.666Z,102248.52
2019-02-05T07:13:23.704Z,102241.98
2019-02-05T07:15:52.557Z,102251.58
2019-02-05T07:18:21.597Z,102251.13
2019-02-05T07:20:50.450Z,102254.62
2019-02-05T07:23:19.351Z,102264.61
2019-02-05T07:25:48.174Z,102263.30
2019-02-05T07:28:32.383Z,102270.31
2019-02-05T07:31:02.296Z,102263.72
2019-02-05T07:33:31.236Z,102268.11
2019-02-05T07:36:00.304Z,102266.39
2019-02-05T07:38:29.155Z,102271.14
2019-02-05T07:40:57.942Z,102280.71
2019-02-05T07:43:26.730Z,102273.27
2019-02-05T07:45:55.850Z,102275.00
2019-02-05T07:48:25.781Z,102277.17
2019-02-05T07:50:54.570Z,102284.98
2019-02-05T07:53:23.556Z,102293.30
2019-02-05T07:55:52.744Z,102297.64
2019-02-05T07:58:21.605Z,102301.16
2019-02-05T08:00:50.488Z,102319.40
2019-02-05T08:03:19.563Z,102319.45
2019-02-05T08:05:48.418Z,102316.37
2019-02-05T08:08:17.355Z,102318.50
2019-02-05T08:10:46.294Z,102315.95
2019-02-05T08:13:15.236Z,102319.80
2019-02-05T08:15:44.727Z,102312.38
2019-02-05T08:18:13.718Z,102319.75
2019-02-05T08:20:42.787Z,102327.97
2019-02-05T08:23:11.773Z,102330.59
2019-02-05T08:25:41.034Z,102321.06
2019-02-05T08:28:10.082Z,102337.17
2019-02-05T08:30:44.641Z,102340.20
2019-02-05T08:33:13.770Z,102341.50
2019-02-05T08:35:42.797Z,102334.49
2019-02-05T08:38:14.203Z,102335.31
2019-02-05T08:40:45.209Z,102342.71
2019-02-05T08:43:32.976Z,102346.19
2019-02-05T08:46:02.170Z,102339.23
2019-02-05T08:48:31.192Z,102345.75
2019-02-05T08:51:00.177Z,102357.52
2019-02-05T08:53:29.453Z,102350.44
2019-02-05T08:55:58.886Z,102355.72
2019-02-05T08:58:31.072Z,102362.71
2019-02-05T09:00:58.835Z,102359.20
2019-02-05T09:03:28.057Z,102357.44
2019-02-05T09:05:56.960Z,102367.97
2019-02-05T09:08:25.995Z,102365.70
2019-02-05T09:10:54.994Z,102355.70
2019-02-05T09:13:24.322Z,102354.28
2019-02-05T09:15:53.791Z,102360.38
2019-02-05T09:18:24.429Z,102327.53
2019-02-05T09:20:53.348Z,102367.78
2019-02-05T09:23:22.301Z,102369.45
2019-02-05T09:25:51.348Z,102369.48
2019-02-05T09:28:20.278Z,102368.69
2019-02-05T09:30:49.211Z,102379.03
2019-02-05T09:33:18.335Z,102384.25
2019-02-05T09:35:47.369Z,102384.62
2019-02-05T09:38:16.339Z,102384.12
2019-02-05T09:40:45.322Z,102378.92
2019-02-05T09:43:14.632Z,102392.42
2019-02-05T09:45:44.223Z,102391.14
2019-02-05T09:48:14.963Z,102393.76
2019-02-05T09:50:45.147Z,102385.36
2019-02-05T09:53:14.220Z,102394.95
2019-02-05T09:55:43.276Z,102391.38
2019-02-05T09:58:12.619Z,102391.78
2019-02-05T10:00:41.827Z,102392.69
2019-02-05T10:03:11.148Z,102392.66
2019-02-05T10:05:40.096Z,102400.59
2019-02-05T10:08:09.053Z,102411.48
2019-02-05T10:10:37.950Z,102413.61
2019-02-05T10:13:07.812Z,102417.54
2019-02-05T10:15:38.002Z,102419.70
2019-02-05T10:18:08.275Z,102416.23
2019-02-05T10:20:37.642Z,102419.30
2019-02-05T10:23:08.267Z,102421.89
2019-02-05T10:25:37.368Z,102428.38
2019-02-05T10:28:06.908Z,102428.35
2019-02-05T10:30:43.710Z,102422.25
2019-02-05T10:33:13.005Z,102428.41
2019-02-05T10:35:42.079Z,102432.25
2019-02-05T10:38:11.195Z,102430.06
2019-02-05T10:40:39.979Z,102429.61
2019-02-05T10:43:08.893Z,102420.37
2019-02-05T10:45:38.261Z,102417.25
2019-02-05T10:48:08.828Z,102425.92
2019-02-05T10:50:37.926Z,102417.63
2019-02-05T10:53:07.264Z,102420.19
2019-02-05T10:55:36.592Z,102413.98
2019-02-05T10:58:06.545Z,102423.90
2019-02-05T11:00:35.857Z,102416.45
2019-02-05T11:03:13.605Z,102415.95
2019-02-05T11:05:42.838Z,102416.28
2019-02-05T11:08:12.206Z,102409.20
2019-02-05T11:10:40.996Z,102409.20
2019-02-05T11:13:09.876Z,102406.98
2019-02-05T11:15:39.154Z,102405.56
2019-02-05T11:18:10.110Z,102405.53
2019-02-05T11:20:39.196Z,102404.09
2019-02-05T11:23:08.667Z,102403.23
2019-02-05T11:25:37.826Z,102413.27
2019-02-05T11:28:16.473Z,102400.92
2019-02-05T11:30:46.770Z,102402.63
2019-02-05T11:33:16.174Z,102409.52
2019-02-05T11:35:46.761Z,102398.11
2019-02-05T11:38:15.702Z,102402.33
2019-02-05T11:40:44.677Z,102400.46
2019-02-05T11:43:13.818Z,102390.08
2019-02-05T11:45:42.825Z,102401.29
2019-02-05T11:48:16.153Z,102409.50
2019-02-05T11:50:45.105Z,102401.53
2019-02-05T11:53:16.166Z,102415.44
2019-02-05T11:55:45.675Z,102412.54
2019-02-05T11:58:15.177Z,102414.75
2019-02-05T12:01:01.557Z,102416.13
2019-02-05T12:03:30.415Z,102410.92
2019-02-05T12:05:59.637Z,102408.74
2019-02-05T12:08:28.502Z,102415.75
2019-02-05T12:10:57.632Z,102416.20
2019-02-05T12:13:26.698Z,102416.20
2019-02-05T12:15:55.597Z,102418.34
2019-02-05T12:18:24.822Z,102415.20
2019-02-05T12:20:53.919Z,102419.96
2019-02-05T12:23:22.888Z,102416.03
2019-02-05T12:25:51.990Z,102409.47
2019-02-05T12:28:21.951Z,102410.72
2019-02-05T12:30:51.005Z,102411.23
2019-02-05T12:33:20.081Z,102421.31
2019-02-05T12:35:49.165Z,102413.48
2019-02-05T12:38:18.256Z,102422.63
2019-02-05T12:40:47.153Z,102419.23
2019-02-05T12:43:16.662Z,102411.72
2019-02-05T12:45:45.664Z,102420.48
2019-02-05T12:48:14.429Z,102426.52
2019-02-05T12:50:43.780Z,102415.16
2019-02-05T12:53:13.001Z,102417.06
2019-02-05T12:55:42.358Z,102420.58
2019-02-05T12:58:11.538Z,102424.58
2019-02-05T13:00:42.415Z,102430.21
2019-02-05T13:03:12.256Z,102432.03
2019-02-05T13:05:42.319Z,102424.17
2019-02-05T13:08:11.399Z,102423.27
2019-02-05T13:10:42.739Z,102432.87
2019-02-05T13:13:11.791Z,102436.31
2019-02-05T13:15:40.902Z,102431.94
2019-02-05T13:18:09.907Z,102436.80
2019-02-05T13:20:39.426Z,102435.14
2019-02-05T13:23:09.061Z,102439.42
2019-02-05T13:25:38.426Z,102439.77
2019-02-05T13:28:09.347Z,102437.95
2019-02-05T13:30:38.453Z,102439.26
2019-02-05T13:33:07.784Z,102439.33
2019-02-05T13:35:37.212Z,102440.09
2019-02-05T13:38:06.700Z,102439.26
2019-02-05T13:40:35.765Z,102443.06
2019-02-05T13:43:05.267Z,102444.41
2019-02-05T13:45:35.360Z,102439.57
2019-02-05T13:48:11.809Z,102443.58
2019-02-05T13:50:44.552Z,102443.44
2019-02-05T13:53:31.466Z,102444.78
2019-02-05T13:56:17.272Z,102447.37
2019-02-05T13:58:59.419Z,102449.13
2019-02-05T14:01:33.613Z,102446.02
2019-02-05T14:04:06.880Z,102452.59
2019-02-05T14:06:37.152Z,102456.04
2019-02-05T14:09:11.959Z,102456.04
2019-02-05T14:11:42.477Z,102453.80
2019-02-05T14:14:13.008Z,102458.62
2019-02-05T14:16:44.305Z,102444.61
2019-02-05T14:19:15.698Z,102463.95
2019-02-05T14:21:46.101Z,102462.59
2019-02-05T14:24:17.431Z,102454.66
2019-02-05T14:26:46.439Z,102464.30
2019-02-05T14:29:16.996Z,102470.41
2019-02-05T14:31:46.069Z,102469.47
2019-02-05T14:34:15.018Z,102471.72
2019-02-05T14:36:44.158Z,102470.88
2019-02-05T14:39:13.123Z,102471.72
2019-02-05T14:41:43.168Z,102475.20
2019-02-05T14:44:11.953Z,102468.27
2019-02-05T14:46:41.096Z,102467.02
2019-02-05T14:49:10.309Z,102476.96
2019-02-05T14:51:39.154Z,102475.20
2019-02-05T14:54:08.110Z,102481.76
2019-02-05T14:56:37.521Z,102477.83
2019-02-05T14:59:06.987Z,102476.61
2019-02-05T15:01:42.812Z,102479.59
2019-02-05T15:04:06.582Z,102488.36
2019-02-05T15:06:38.341Z,102481.80
2019-02-05T15:09:09.287Z,102492.29
2019-02-05T15:11:38.317Z,102485.77
2019-02-05T15:14:07.465Z,102483.66
2019-02-05T15:16:37.857Z,102485.28
2019-02-05T15:19:06.860Z,102483.20
2019-02-05T15:21:35.728Z,102476.23
2019-02-05T15:24:04.838Z,102481.06
2019-02-05T15:26:34.644Z,102480.66
2019-02-05T15:29:09.932Z,102474.92
2019-02-05T15:31:35.459Z,102481.55
2019-02-05T15:34:25.239Z,102482.34
2019-02-05T15:36:54.107Z,102468.50
2019-02-05T15:39:23.197Z,102477.55
2019-02-05T15:41:52.412Z,102485.58
2019-02-05T15:44:21.470Z,102485.55
2019-02-05T15:46:50.789Z,102483.34
2019-02-05T15:49:19.970Z,102487.69
2019-02-05T15:51:50.399Z,102483.30
2019-02-05T15:54:19.250Z,102479.88
2019-02-05T15:56:48.126Z,102482.54
2019-02-05T15:59:19.151Z,102487.69
2019-02-05T16:01:48.224Z,102489.06
2019-02-05T16:04:17.072Z,102487.75
2019-02-05T16:06:46.341Z,102491.63
2019-02-05T16:09:15.926Z,102486.86
2019-02-05T16:11:45.101Z,102494.82
2019-02-05T16:14:14.301Z,102499.97
2019-02-05T16:16:43.193Z,102491.20
2019-02-05T16:19:12.170Z,102496.52
2019-02-05T16:21:41.021Z,102500.55
2019-02-05T16:24:10.441Z,102494.77
2019-02-05T16:26:39.383Z,102496.48
2019-02-05T16:29:08.503Z,102494.70
2019-02-05T16:31:37.340Z,102501.73
2019-02-05T16:34:06.382Z,102501.83
2019-02-05T16:36:35.965Z,102501.89
2019-02-05T16:39:07.710Z,102505.38
2019-02-05T16:41:37.134Z,102506.17
2019-02-05T16:44:06.083Z,102503.52
2019-02-05T16:46:35.130Z,102510.17
2019-02-05T16:49:04.918Z,102511.39
2019-02-05T16:51:33.713Z,102514.02
2019-02-05T16:54:02.596Z,102515.87
2019-02-05T16:56:31.534Z,102519.74
2019-02-05T16:59:00.996Z,102522.88
2019-02-05T17:01:30.223Z,102524.66
2019-02-05T17:03:59.780Z,102524.66
2019-02-05T17:06:28.664Z,102527.88
2019-02-05T17:08:57.833Z,102524.01
2019-02-05T17:11:26.730Z,102527.02
2019-02-05T17:14:08.112Z,102529.19
2019-02-05T17:16:37.358Z,102538.07
2019-02-05T17:19:07.142Z,102536.31
2019-02-05T17:21:36.357Z,102536.28
2019-02-05T17:24:05.359Z,102544.12
2019-02-05T17:26:34.682Z,102547.19
2019-02-05T17:29:04.227Z,102553.80
2019-02-05T17:31:33.120Z,102555.69
2019-02-05T17:34:02.294Z,102557.31
2019-02-05T17:36:31.412Z,102553.85
2019-02-05T17:39:00.186Z,102559.94
2019-02-05T17:41:31.971Z,102564.31
2019-02-05T17:44:00.954Z,102560.91
2019-02-05T17:46:29.932Z,102562.36
2019-02-05T17:48:59.067Z,102560.99
2019-02-05T17:51:34.840Z,102554.86
2019-02-05T17:54:04.996Z,102567.59
2019-02-05T17:56:35.455Z,102569.27
2019-02-05T17:59:06.118Z,102567.18
2019-02-05T18:01:36.637Z,102572.79
2019-02-05T18:04:14.357Z,102569.33
2019-02-05T18:06:43.894Z,102571.95
2019-02-05T18:09:13.179Z,102576.41
2019-02-05T18:11:42.407Z,102578.83
2019-02-05T18:14:11.579Z,102569.11
2019-02-05T18:17:14.918Z,102572.02
2019-02-05T18:19:43.799Z,102567.67
2019-02-05T18:22:23.358Z,102581.38
2019-02-05T18:24:52.198Z,102578.66
2019-02-05T18:27:21.065Z,102580.78
2019-02-05T18:29:53.220Z,102584.69
2019-02-05T18:32:22.323Z,102580.39
2019-02-05T18:34:51.163Z,102585.60
2019-02-05T18:37:20.306Z,102585.31
2019-02-05T18:39:49.241Z,102583.05
2019-02-05T18:42:18.165Z,102591.22
2019-02-05T18:44:48.205Z,102590.09
2019-02-05T18:47:17.079Z,102585.30
2019-02-05T18:49:46.046Z,102591.36
2019-02-05T18:52:15.123Z,102593.23
2019-02-05T18:54:43.956Z,102596.42
2019-02-05T18:57:13.774Z,102590.23
2019-02-05T18:59:42.799Z,102586.82
2019-02-05T19:02:11.673Z,102585.41
2019-02-05T19:04:40.813Z,102584.63
2019-02-05T19:07:11.686Z,102582.12
2019-02-05T19:09:41.748Z,102581.33
2019-02-05T19:12:10.538Z,102586.45
2019-02-05T19:14:39.935Z,102588.46
2019-02-05T19:17:08.969Z,102578.75
2019-02-05T19:19:39.123Z,102573.00
2019-02-05T19:22:10.456Z,102575.28
2019-02-05T19:24:59.111Z,102578.79
2019-02-05T19:27:28.124Z,102568.20
2019-02-05T19:29:57.394Z,102569.16
2019-02-05T19:32:28.383Z,102568.73
2019-02-05T19:34:58.645Z,102572.22
2019-02-05T19:37:27.482Z,102578.34
2019-02-05T19:39:58.555Z,102573.13
2019-02-05T19:42:29.964Z,102579.80
2019-02-05T19:45:10.267Z,102579.36
2019-02-05T19:47:40.399Z,102574.06
2019-02-05T19:50:09.466Z,102576.21
2019-02-05T19:52:39.419Z,102581.20
2019-02-05T19:55:08.564Z,102587.33
2019-02-05T19:57:38.095Z,102597.36
2019-02-05T20:00:08.037Z,102592.50
2019-02-05T20:02:39.782Z,102596.52
2019-02-05T20:05:09.245Z,102597.83
2019-02-05T20:07:38.242Z,102599.77
2019-02-05T20:10:08.494Z,102596.60
2019-02-05T20:12:37.807Z,102593.11
2019-02-05T20:15:07.777Z,102600.21
2019-02-05T20:17:38.222Z,102605.00
2019-02-05T20:20:09.848Z,102608.02
2019-02-05T20:22:38.779Z,102609.80
2019-02-05T20:25:10.606Z,102601.98
2019-02-05T20:27:39.667Z,102605.03
2019-02-05T20:30:10.587Z,102606.84
2019-02-05T20:32:39.796Z,102604.23
2019-02-05T20:35:08.776Z,102611.70
2019-02-05T20:37:37.655Z,102607.73
2019-02-05T20:40:21.758Z,102605.97
2019-02-05T20:42:42.341Z,102613.80
2019-02-05T20:45:14.425Z,102618.20
2019-02-05T20:47:43.250Z,102615.16
2019-02-05T20:50:14.892Z,102610.84
2019-02-05T20:52:43.822Z,102615.22
2019-02-05T20:55:14.142Z,102611.73
2019-02-05T20:57:43.110Z,102616.12
2019-02-05T21:00:15.617Z,102607.06
2019-02-05T21:02:44.788Z,102612.66
2019-02-05T21:05:14.990Z,102602.63
2019-02-05T21:07:44.097Z,102604.49
2019-02-05T21:10:16.243Z,102612.73
2019-02-05T21:12:45.318Z,102614.88
2019-02-05T21:15:15.237Z,102612.27
2019-02-05T21:17:44.604Z,102614.53
2019-02-05T21:20:15.779Z,102620.59
2019-02-05T21:22:44.642Z,102619.39
2019-02-05T21:25:15.289Z,102622.95
2019-02-05T21:27:44.335Z,102626.79
2019-02-05T21:30:15.766Z,102627.20
2019-02-05T21:32:47.769Z,102621.16
2019-02-05T21:35:15.578Z,102622.06
2019-02-05T21:37:45.067Z,102624.66
2019-02-05T21:40:18.045Z,102630.84
2019-02-05T21:42:46.807Z,102621.16
2019-02-05T21:45:18.098Z,102627.78
2019-02-05T21:47:47.467Z,102624.62
2019-02-05T21:50:18.481Z,102634.17
2019-02-05T21:52:48.657Z,102629.01
2019-02-05T21:55:18.217Z,102623.84
2019-02-05T21:57:48.744Z,102625.15
2019-02-05T22:00:23.666Z,102630.80
2019-02-05T22:02:52.646Z,102636.94
2019-02-05T22:05:21.708Z,102631.66
2019-02-05T22:07:50.515Z,102636.47
2019-02-05T22:10:20.265Z,102628.66
2019-02-05T22:12:49.468Z,102631.70
2019-02-05T22:15:18.809Z,102625.23
2019-02-05T22:17:47.889Z,102630.88
2019-02-05T22:20:18.919Z,102630.85
2019-02-05T22:22:47.931Z,102622.13
2019-02-05T22:25:19.926Z,102616.14
2019-02-05T22:27:49.088Z,102619.55
2019-02-05T22:30:29.181Z,102624.84
2019-02-05T22:32:58.378Z,102626.18
2019-02-05T22:35:27.559Z,102616.56
2019-02-05T22:37:56.718Z,102613.11
2019-02-05T22:40:26.873Z,102615.67
2019-02-05T22:42:56.368Z,102613.93
2019-02-05T22:45:27.150Z,102603.02
2019-02-05T22:47:56.405Z,102605.56
2019-02-05T22:50:26.789Z,102614.39
2019-02-05T22:52:55.681Z,102613.48
2019-02-05T22:55:24.866Z,102603.94
2019-02-05T22:57:53.791Z,102603.97
2019-02-05T23:00:49.456Z,102600.05
2019-02-05T23:03:24.782Z,102596.08
2019-02-05T23:06:19.676Z,102594.91
2019-02-05T23:08:48.487Z,102606.17
2019-02-05T23:11:49.553Z,102601.80
2019-02-05T23:14:18.977Z,102596.16
2019-02-05T23:16:48.042Z,102596.53
2019-02-05T23:19:17.088Z,102604.86
2019-02-05T23:21:46.025Z,102610.11
2019-02-05T23:24:15.161Z,102600.09
2019-02-05T23:26:43.936Z,102606.69
2019-02-05T23:29:13.284Z,102602.75
2019-02-05T23:31:42.151Z,102604.02
2019-02-05T23:34:11.348Z,102602.72
2019-02-05T23:36:40.386Z,102602.30
2019-02-05T23:39:11.021Z,102605.36
2019-02-05T23:41:40.190Z,102608.42
2019-02-05T23:44:09.089Z,102618.03
2019-02-05T23:46:37.907Z,102622.38
2019-02-05T23:49:06.839Z,102624.56
2019-02-05T23:51:36.462Z,102633.77
2019-02-05T23:54:05.867Z,102632.02
2019-02-05T23:56:35.068Z,102627.69
2019-02-05T23:59:04.381Z,102620.70
